Time;durP1;ratioP1;P1;durP2;ratioP2;P2;SDS_P1;SDS_P2;PMS_P1;PMS_P2;Temp;Humidity;BMP_temperature;BMP_pressure;BME280_temperature;BME280_humidity;BME280_pressure;Samples;Min_cycle;Max_cycle;Signal;HPM_P1;HPM_P2
2022/02/23 00:41:19;;;;;;;37.15;30.80;;;;;;;3.87;100.00;94782.97;6186011;22;1505138;-83
2022/02/23 00:43:45;;;;;;;38.50;31.67;;;;;;;3.53;100.00;94734.69;6244239;23;20056;-84
2022/02/23 00:46:11;;;;;;;41.15;33.33;;;;;;;3.49;100.00;94727.44;6218549;23;20015;-85
2022/02/23 00:48:37;;;;;;;42.78;35.25;;;;;;;3.68;100.00;94765.84;6218483;23;19993;-85
2022/02/23 00:51:02;;;;;;;35.33;31.45;;;;;;;3.60;100.00;94738.34;6218466;23;20016;-84
2022/02/23 00:53:28;;;;;;;43.28;35.58;;;;;;;3.66;100.00;94749.81;6218243;23;19996;-85
2022/02/23 00:55:54;;;;;;;45.08;36.60;;;;;;;3.61;100.00;94752.78;6231748;23;20020;-84
2022/02/23 10:05:05;;;;;;;16.33;13.75;;;;;;;7.53;100.00;94997.69;6183262;22;20057;-84
2022/02/23 10:07:37;;;;;;;15.48;13.93;;;;;;;8.04;98.97;94993.44;6133960;23;20022;-82
2022/02/23 10:10:07;;;;;;;15.07;13.57;;;;;;;8.22;95.87;94983.88;6183196;23;20007;-83
2022/02/23 10:12:37;;;;;;;15.90;14.38;;;;;;;8.30;99.09;94992.47;6133877;23;20010;-82
2022/02/23 10:15:08;;;;;;;;;;;;;;;8.41;97.21;95032.69;6158089;23;20005;-82
2022/02/23 10:20:32;;;;;;;12.30;11.27;;;;;;;8.57;97.06;95030.16;6185983;23;20085;-83
2022/02/23 10:23:05;;;;;;;13.82;11.82;;;;;;;7.84;96.79;94990.28;6158637;23;20005;-83
2022/02/23 10:46:15;;;;;;;11.73;10.63;;;;;;;7.05;100.00;95007.59;6197050;23;20024;-81
2022/02/23 10:53:52;;;;;;;12.93;10.88;;;;;;;6.86;100.00;94978.50;6192464;23;20998;-81
2022/02/23 11:32:41;;;;;;;14.32;12.82;;;;;;;7.01;100.00;94980.53;6170673;23;20009;-81
2022/02/23 15:15:14;;;;;;;5.28;4.03;;;;;;;6.67;95.35;95037.00;6189531;22;20033;-79
2022/02/23 15:17:40;;;;;;;7.32;4.70;;;;;;;6.47;96.89;95033.72;6163095;23;20014;-77
2022/02/23 15:20:06;;;;;;;10.05;4.70;;;;;;;6.81;96.40;95078.50;6137878;23;20025;-81
2022/02/23 15:22:32;;;;;;;7.75;4.85;;;;;;;6.77;92.32;95078.94;6117823;23;20017;-79
2022/02/23 15:24:58;;;;;;;5.82;4.30;;;;;;;6.51;90.70;95032.50;6156470;23;20025;-79
2022/02/23 15:27:23;;;;;;;4.38;3.65;;;;;;;6.62;90.73;95067.50;6158590;23;20016;-77
2022/02/23 15:29:49;;;;;;;5.75;3.83;;;;;;;6.69;90.96;95074.50;6144460;23;20009;-76
2022/02/23 15:32:14;;;;;;;6.82;3.70;;;;;;;6.68;91.13;95077.19;6124622;23;20021;-79
2022/02/23 15:34:40;;;;;;;7.38;4.25;;;;;;;6.62;91.89;95088.88;6151607;23;20122;-79
2022/02/23 15:37:06;;;;;;;8.77;4.43;;;;;;;6.59;91.71;95094.31;6176967;23;20020;-79
2022/02/23 15:39:31;;;;;;;5.45;4.40;;;;;;;6.43;91.44;95096.69;6176203;23;20012;-78
2022/02/23 15:41:57;;;;;;;8.73;4.20;;;;;;;6.51;91.84;95093.44;6176794;23;20009;-77
2022/02/23 15:44:23;;;;;;;6.55;4.10;;;;;;;6.27;92.66;95099.06;6147520;23;20505;-78
2022/02/23 15:46:48;;;;;;;6.38;3.78;;;;;;;6.29;93.58;95107.47;6174613;23;20016;-78
2022/02/23 15:49:14;;;;;;;5.55;3.80;;;;;;;6.29;94.51;95092.03;6113778;23;20008;-77
2022/02/23 15:51:40;;;;;;;5.80;3.92;;;;;;;6.23;94.54;95093.38;6173580;23;20009;-77
2022/02/23 15:54:06;;;;;;;9.00;4.10;;;;;;;6.17;94.43;95098.28;6121998;23;20012;-77
2022/02/23 15:56:31;;;;;;;5.53;3.88;;;;;;;6.09;94.17;95093.84;6174513;23;20024;-77
2022/02/23 15:58:57;;;;;;;7.07;3.63;;;;;;;6.06;95.29;95095.91;6172208;23;19997;-77
2022/02/23 16:01:23;;;;;;;9.18;3.67;;;;;;;6.07;95.26;95103.44;6147404;23;20083;-77
2022/02/23 16:03:52;;;;;;;6.57;3.60;;;;;;;5.98;95.58;95106.03;6146777;23;20009;-77
2022/02/23 16:06:19;;;;;;;7.93;4.53;;;;;;;5.79;95.72;95112.81;6147235;23;20010;-78
2022/02/23 16:08:49;;;;;;;7.85;3.60;;;;;;;5.88;95.77;95107.81;6148773;23;20043;-77
2022/02/23 16:11:14;;;;;;;5.63;3.67;;;;;;;5.79;95.69;95119.72;6146817;23;20012;-77
2022/02/23 16:13:41;;;;;;;6.82;4.50;;;;;;;5.77;96.09;95121.63;6174798;23;20325;-80
2022/02/23 16:16:07;;;;;;;6.45;4.40;;;;;;;5.80;97.16;95131.63;6171110;23;20009;-77
2022/02/23 16:18:33;;;;;;;11.45;5.47;;;;;;;5.74;96.69;95133.00;6148008;23;20020;-77
2022/02/23 16:20:59;;;;;;;10.23;5.55;;;;;;;5.84;96.69;95135.56;6144915;23;20055;-77
2022/02/23 16:23:24;;;;;;;14.80;6.38;;;;;;;5.82;98.06;95140.00;6144853;23;20001;-78
2022/02/23 16:25:50;;;;;;;10.60;7.70;;;;;;;5.76;97.58;95140.53;6122448;23;20005;-78
2022/02/23 16:28:15;;;;;;;10.05;6.78;;;;;;;5.76;97.93;95151.63;6146284;23;20013;-78
2022/02/23 16:30:42;;;;;;;10.40;7.53;;;;;;;5.73;97.76;95153.66;6147219;23;20482;-78
2022/02/23 16:33:08;;;;;;;16.25;7.10;;;;;;;5.67;97.64;95155.03;6144969;23;20581;-77
2022/02/23 16:35:34;;;;;;;11.77;7.45;;;;;;;5.72;97.18;95157.16;6146710;23;20028;-77
2022/02/23 16:38:00;;;;;;;14.20;8.70;;;;;;;5.67;97.26;95161.91;6122597;23;20411;-77
2022/02/23 16:40:26;;;;;;;11.90;7.30;;;;;;;5.64;96.36;95165.56;6147766;23;20664;-78
2022/02/23 16:42:51;;;;;;;11.23;7.65;;;;;;;5.68;95.90;95169.47;6122721;23;20329;-78
2022/02/23 16:45:17;;;;;;;10.75;7.13;;;;;;;5.62;95.70;95164.09;6121858;23;20005;-78
2022/02/23 16:47:42;;;;;;;11.30;7.38;;;;;;;5.54;95.88;95166.50;6147958;23;20032;-78
2022/02/23 16:50:09;;;;;;;11.98;8.02;;;;;;;5.45;96.76;95175.03;6146184;23;20462;-77
2022/02/23 16:52:36;;;;;;;22.17;8.68;;;;;;;5.37;97.22;95175.69;6147542;23;20084;-78
2022/02/23 16:55:02;;;;;;;15.13;9.48;;;;;;;5.31;97.02;95168.53;6121058;23;20009;-78
2022/02/23 16:57:27;;;;;;;31.63;19.52;;;;;;;5.34;98.26;95186.22;6148480;23;20087;-78
2022/02/23 16:59:54;;;;;;;57.92;36.35;;;;;;;5.07;99.83;95183.50;6146269;23;20008;-78
2022/02/23 17:02:20;;;;;;;66.80;43.42;;;;;;;4.96;100.00;95194.66;6124325;23;20008;-78
2022/02/23 17:04:45;;;;;;;62.47;42.15;;;;;;;4.91;100.00;95198.56;6123182;23;20013;-78
2022/02/23 17:07:11;;;;;;;38.22;29.10;;;;;;;4.84;100.00;95188.00;6147109;23;20491;-78
2022/02/23 17:09:37;;;;;;;35.95;26.10;;;;;;;4.83;100.00;95193.25;6148781;23;20001;-78
2022/02/23 17:12:04;;;;;;;32.00;20.80;;;;;;;4.74;100.00;95192.28;6146467;23;20005;-79
2022/02/23 17:14:29;;;;;;;27.90;15.65;;;;;;;4.62;100.00;95193.34;6148169;23;20009;-79
2022/02/23 17:16:55;;;;;;;22.77;11.43;;;;;;;4.54;100.00;95190.59;6146186;23;20016;-78
2022/02/23 17:19:20;;;;;;;14.07;7.40;;;;;;;4.56;100.00;95194.63;6150268;23;20005;-79
2022/02/23 17:21:47;;;;;;;14.00;6.72;;;;;;;4.45;100.00;95201.59;6122559;23;20099;-79
2022/02/23 17:24:12;;;;;;;15.38;7.45;;;;;;;4.52;100.00;95206.13;6151115;23;20013;-80
2022/02/23 17:26:38;;;;;;;10.98;7.13;;;;;;;4.44;100.00;95198.22;6151903;23;20009;-79
2022/02/23 17:29:03;;;;;;;11.07;7.28;;;;;;;4.50;100.00;95202.03;6127026;23;20351;-80
2022/02/23 17:31:29;;;;;;;9.68;7.22;;;;;;;4.31;100.00;95207.88;6153230;23;20062;-79
2022/02/23 17:33:54;;;;;;;18.65;9.25;;;;;;;4.39;100.00;95218.31;6131363;23;20423;-79
2022/02/23 17:36:20;;;;;;;10.77;8.20;;;;;;;4.31;99.31;95205.31;6155927;23;20447;-79
2022/02/23 17:38:46;;;;;;;15.70;8.77;;;;;;;4.20;99.69;95203.66;6122714;23;20013;-79
2022/02/23 17:41:11;;;;;;;11.15;7.07;;;;;;;4.20;99.42;95203.66;6149887;23;20387;-78
2022/02/23 17:43:37;;;;;;;8.18;5.50;;;;;;;4.20;97.89;95206.22;6157376;23;20463;-79
2022/02/23 17:46:03;;;;;;;12.90;5.07;;;;;;;4.09;98.01;95200.31;6151889;23;20095;-79
2022/02/23 17:48:30;;;;;;;11.38;5.55;;;;;;;3.99;98.75;95213.06;6151665;23;20091;-79
2022/02/23 17:50:56;;;;;;;16.08;6.10;;;;;;;3.94;98.47;95219.50;6181547;23;20013;-81
2022/02/23 17:53:24;;;;;;;6.72;5.00;;;;;;;3.85;98.95;95213.38;6173143;23;20139;-80
2022/02/23 17:55:50;;;;;;;10.35;6.20;;;;;;;3.79;99.67;95218.97;6176352;23;20001;-81
2022/02/23 17:58:15;;;;;;;11.23;5.75;;;;;;;3.69;99.31;95213.78;6157017;23;20009;-81
2022/02/23 18:00:40;;;;;;;9.57;4.57;;;;;;;3.41;99.35;95218.66;6151015;23;20016;-81
2022/02/23 18:03:07;;;;;;;7.90;4.18;;;;;;;3.42;98.69;95223.66;6195991;23;20091;-79
2022/02/23 18:05:33;;;;;;;8.43;5.15;;;;;;;3.36;99.48;95221.59;6139484;23;20455;-80
2022/02/23 18:07:58;;;;;;;8.40;5.40;;;;;;;3.35;99.27;95232.75;6147801;23;20175;-80
2022/02/23 18:10:24;;;;;;;10.10;5.53;;;;;;;3.33;99.12;95226.13;6202440;23;20001;-80
2022/02/23 18:12:49;;;;;;;7.93;5.30;;;;;;;3.28;99.80;95234.16;6144652;23;20009;-80
2022/02/23 18:15:17;;;;;;;9.10;5.82;;;;;;;3.28;100.00;95244.41;6166388;23;20370;-80
2022/02/23 18:17:43;;;;;;;7.47;5.78;;;;;;;3.16;100.00;95242.78;6189333;23;20407;-80
2022/02/23 18:20:09;;;;;;;11.40;5.95;;;;;;;3.41;100.00;95245.06;6162599;23;20052;-79
2022/02/23 18:22:35;;;;;;;9.77;5.80;;;;;;;3.41;100.00;95239.94;6159442;23;20036;-79
2022/02/23 18:25:00;;;;;;;10.52;5.78;;;;;;;3.46;99.85;95249.84;6134903;23;20017;-79
2022/02/23 18:27:26;;;;;;;15.55;7.70;;;;;;;3.61;99.48;95238.38;6168480;23;20008;-80
2022/02/23 18:29:51;;;;;;;11.30;6.10;;;;;;;3.78;99.53;95249.84;6148257;23;19989;-80
2022/02/23 18:32:17;;;;;;;11.68;6.20;;;;;;;3.85;99.71;95254.38;6172021;23;20008;-80
2022/02/23 18:34:44;;;;;;;12.00;6.20;;;;;;;3.90;100.00;95254.81;6148945;23;20005;-80
2022/02/23 18:37:09;;;;;;;9.02;5.57;;;;;;;4.01;99.53;95253.94;6150232;23;20017;-80
2022/02/23 18:39:35;;;;;;;16.23;6.85;;;;;;;4.19;96.98;95255.84;6153054;23;20077;-81
2022/02/23 18:42:01;;;;;;;11.38;6.78;;;;;;;4.17;97.40;95244.09;6157735;23;20012;-81
2022/02/23 18:44:26;;;;;;;11.13;5.32;;;;;;;4.29;96.26;95255.91;6178081;23;20029;-81
2022/02/23 18:46:52;;;;;;;11.52;5.88;;;;;;;4.41;96.03;95262.56;6161497;23;20009;-81
2022/02/23 18:49:18;;;;;;;7.00;5.07;;;;;;;4.25;94.55;95224.56;6183306;23;20009;-80
2022/02/23 18:51:44;;;;;;;6.88;4.72;;;;;;;4.46;94.35;95264.78;6183497;23;20036;-81
2022/02/23 18:54:09;;;;;;;10.45;5.38;;;;;;;4.19;94.34;95224.25;6159141;23;20009;-80
2022/02/23 18:56:37;;;;;;;12.02;5.45;;;;;;;4.30;94.63;95231.91;6179404;23;20032;-81
2022/02/23 18:59:03;;;;;;;9.15;5.15;;;;;;;4.14;94.44;95211.81;6186091;23;20024;-82
2022/02/23 19:01:29;;;;;;;16.10;5.63;;;;;;;4.25;94.70;95227.13;6157513;23;20008;-83
2022/02/23 19:03:55;;;;;;;11.35;4.35;;;;;;;4.18;94.34;95210.63;6154234;23;20025;-82
2022/02/23 19:06:21;;;;;;;9.98;4.60;;;;;;;4.31;94.03;95230.94;6154996;23;20013;-82
2022/02/23 19:08:47;;;;;;;11.73;5.07;;;;;;;4.42;94.66;95243.69;6178526;23;20009;-81
2022/02/23 19:11:13;;;;;;;8.55;5.10;;;;;;;4.27;94.89;95221.09;6137581;23;20029;-83
2022/02/23 19:18:49;;;;;;;9.32;4.95;;;;;;;4.20;96.28;95223.34;6181521;23;20012;-83
2022/02/23 19:21:15;;;;;;;11.13;5.43;;;;;;;4.22;96.43;95213.75;6183665;23;19990;-82
2022/02/23 19:36:36;;;;;;;11.55;5.72;;;;;;;4.14;97.03;95213.59;6171225;23;20226;-79
2022/02/23 20:05:05;;;;;;;11.30;6.43;;;;;;;4.24;96.89;95229.81;6212054;22;20032;-84
2022/02/23 20:10:09;;;;;;;10.07;6.82;;;;;;;4.10;98.01;95225.03;6205020;22;20008;-81
2022/02/23 20:28:29;;;;;;;10.60;6.28;;;;;;;4.35;97.75;95244.31;6201922;23;20035;-80
2022/02/23 20:46:29;;;;;;;14.68;6.65;;;;;;;4.14;97.78;95255.38;6214072;22;20034;-80
2022/02/23 21:05:48;;;;;;;15.75;6.38;;;;;;;4.12;99.44;95236.75;6237584;23;20009;-82
2022/02/23 21:08:17;;;;;;;18.00;7.03;;;;;;;4.08;98.61;95244.81;6192035;23;20004;-87
2022/02/23 21:10:43;;;;;;;23.02;7.88;;;;;;;4.03;98.24;95237.50;6184823;22;20070;-81
2022/02/23 21:13:08;;;;;;;12.77;7.28;;;;;;;4.09;98.35;95252.38;6185448;23;20009;-81
2022/02/23 21:15:34;;;;;;;14.30;7.30;;;;;;;4.15;98.28;95251.06;6235464;23;20015;-80
2022/02/23 21:18:00;;;;;;;17.13;9.18;;;;;;;3.95;99.25;95246.75;6203808;23;20011;-80
2022/02/23 21:20:28;;;;;;;11.52;7.93;;;;;;;4.03;100.00;95258.00;6208315;23;19987;-82
2022/02/23 21:22:54;;;;;;;13.50;7.18;;;;;;;3.90;100.00;95238.63;6208463;23;20027;-79
2022/02/23 21:25:20;;;;;;;10.38;6.30;;;;;;;4.12;100.00;95270.06;6175738;23;20009;-79
2022/02/23 21:27:46;;;;;;;11.10;6.03;;;;;;;4.23;100.00;95294.84;6186209;23;20008;-80
2022/02/23 21:30:15;;;;;;;10.80;5.97;;;;;;;3.99;100.00;95250.69;6205655;23;20004;-80
2022/02/23 21:32:42;;;;;;;13.55;6.38;;;;;;;4.06;100.00;95262.06;6207525;23;20000;-81
2022/02/23 21:35:08;;;;;;;11.52;6.65;;;;;;;3.86;100.00;95234.66;6213452;23;19996;-80
2022/02/23 21:37:34;;;;;;;10.18;6.15;;;;;;;3.87;100.00;95241.44;6191765;23;19988;-81
2022/02/23 21:40:00;;;;;;;9.85;5.30;;;;;;;4.09;100.00;95267.75;6215515;23;20000;-80
2022/02/23 21:42:26;;;;;;;9.75;6.30;;;;;;;4.10;100.00;95271.13;6216076;23;20001;-81
2022/02/23 21:47:27;;;;;;;13.27;6.25;;;;;;;3.90;100.00;95243.75;6208050;22;20024;-80
2022/02/23 21:49:53;;;;;;;8.77;5.78;;;;;;;4.20;100.00;95300.22;6181111;23;20016;-80
2022/02/23 21:52:19;;;;;;;7.43;5.78;;;;;;;4.22;100.00;95300.91;6160448;23;20016;-81
2022/02/23 21:54:47;;;;;;;7.45;5.75;;;;;;;3.76;100.00;95239.72;6208816;23;20052;-80
2022/02/23 21:57:12;;;;;;;9.52;5.97;;;;;;;4.18;100.00;95281.56;6214681;23;20004;-80
2022/02/23 21:59:39;;;;;;;9.10;5.68;;;;;;;3.91;100.00;95243.63;6213719;23;20005;-81
2022/02/23 22:02:06;;;;;;;11.60;6.72;;;;;;;4.00;100.00;95268.50;6178156;22;20048;-81
2022/02/23 22:04:31;;;;;;;9.15;6.22;;;;;;;3.87;100.00;95238.88;6189225;23;20009;-82
2022/02/23 22:14:43;;;;;;;10.80;6.95;;;;;;;3.91;100.00;95241.06;6203565;22;20055;-83
2022/02/23 22:30:05;;;;;;;10.00;6.82;;;;;;;3.81;100.00;95221.44;6204758;22;20798;-83
2022/02/23 22:32:30;;;;;;;10.25;6.30;;;;;;;3.86;100.00;95239.78;6186393;23;20017;-86
2022/02/23 22:34:56;;;;;;;11.32;6.60;;;;;;;3.75;100.00;95227.03;6161966;23;20008;-83
2022/02/23 23:26:30;;;;;;;10.25;6.80;;;;;;;3.72;100.00;95228.09;6205144;22;20009;-81
2022/02/23 23:44:27;;;;;;;18.65;7.18;;;;;;;3.30;100.00;95196.50;6207539;22;20009;-81
2022/02/23 23:49:27;;;;;;;11.75;6.18;;;;;;;3.30;100.00;95177.75;6210924;22;20024;-81
2022/02/23 23:51:53;;;;;;;11.18;6.80;;;;;;;3.35;100.00;95196.09;6186575;23;20004;-81
2022/02/23 23:54:24;;;;;;;10.88;7.03;;;;;;;3.24;100.00;95186.75;6211526;22;20055;-81
2022/02/23 23:56:53;;;;;;;7.40;5.60;;;;;;;3.51;100.00;95220.38;6211273;23;19997;-80
2022/02/23 23:59:20;;;;;;;12.23;6.07;;;;;;;3.49;100.00;95226.56;6209379;23;20004;-80
